Time;durP1;ratioP1;P1;durP2;ratioP2;P2;SDS_P1;SDS_P2;PMS_P1;PMS_P2;Temp;Humidity;BMP_temperature;BMP_pressure;BME280_temperature;BME280_humidity;BME280_pressure;Samples;Min_cycle;Max_cycle;Signal;HPM_P1;HPM_P2
2022/07/21 00:03:16;;;;;;;0.93;0.80;;;;;;;18.54;64.02;100765.00;10282227;29;20057;-83
2022/07/21 00:08:18;;;;;;;0.88;0.88;;;;;;;18.55;63.86;100766.63;10283072;28;20046;-81
2022/07/21 00:13:21;;;;;;;1.13;0.90;;;;;;;18.52;64.06;100761.72;10256993;29;20039;-81
2022/07/21 00:18:23;;;;;;;1.90;1.20;;;;;;;18.52;64.22;100772.84;10272615;29;20046;-85
2022/07/21 00:23:26;;;;;;;1.13;1.02;;;;;;;18.50;64.05;100761.25;10272405;29;20043;-81
2022/07/21 00:28:29;;;;;;;1.23;1.13;;;;;;;18.49;64.55;100767.97;10292146;28;20055;-82
2022/07/21 00:33:31;;;;;;;1.05;1.00;;;;;;;18.49;65.13;100776.28;10271955;29;20422;-82
2022/07/21 00:38:33;;;;;;;0.88;0.88;;;;;;;18.48;65.01;100777.44;10280909;29;20497;-81
2022/07/21 00:43:35;;;;;;;0.85;0.75;;;;;;;18.46;65.07;100788.06;10288828;29;20131;-81
2022/07/21 00:48:42;;;;;;;1.33;1.23;;;;;;;18.41;64.81;100785.47;10287411;29;20051;-81
2022/07/21 00:53:45;;;;;;;2.20;1.13;;;;;;;18.34;65.25;100788.75;10286878;29;20054;-91
2022/07/21 00:58:48;;;;;;;3.38;1.20;;;;;;;18.32;65.37;100791.03;10287074;29;20039;-79
2022/07/21 01:03:52;;;;;;;1.27;1.17;;;;;;;18.28;65.72;100793.66;10287707;29;20050;-80
2022/07/21 01:08:56;;;;;;;2.67;1.20;;;;;;;18.23;66.29;100784.69;10270414;29;20042;-80
2022/07/21 01:13:58;;;;;;;1.25;1.15;;;;;;;18.17;66.41;100784.03;10287230;29;20036;-81
2022/07/21 01:19:00;;;;;;;2.10;0.90;;;;;;;18.14;66.83;100781.91;10269961;28;20042;-83
2022/07/21 01:24:04;;;;;;;1.05;1.02;;;;;;;18.13;66.78;100785.03;10270165;29;20051;-82
2022/07/21 01:29:08;;;;;;;3.22;1.30;;;;;;;18.14;66.65;100784.69;10269864;29;20043;-81
2022/07/21 01:34:11;;;;;;;1.27;1.17;;;;;;;18.14;67.06;100781.91;10287058;29;20054;-82
2022/07/21 01:44:34;;;;;;;1.38;1.27;;;;;;;18.12;67.70;100781.44;10286437;29;20513;-83
2022/07/21 01:49:41;;;;;;;1.27;1.17;;;;;;;18.10;67.66;100783.72;10251026;29;20558;-75
2022/07/21 01:54:44;;;;;;;1.20;1.10;;;;;;;18.06;68.08;100786.34;10260080;28;20058;-76
2022/07/21 01:59:46;;;;;;;3.22;1.30;;;;;;;18.11;68.13;100790.09;10261470;29;20518;-76
2022/07/21 02:04:50;;;;;;;2.97;1.23;;;;;;;18.18;68.12;100799.53;10249229;29;20035;-76
2022/07/21 02:09:52;;;;;;;1.13;0.90;;;;;;;18.26;68.42;100798.72;10244322;29;20051;-76
2022/07/21 02:14:54;;;;;;;1.60;1.20;;;;;;;18.41;68.17;100802.97;10257170;29;20418;-76
2022/07/21 02:19:57;;;;;;;2.08;0.90;;;;;;;18.54;67.95;100798.34;10246557;29;20044;-75
2022/07/21 02:25:00;;;;;;;1.67;1.38;;;;;;;18.66;67.81;100804.06;10250536;29;20072;-75
2022/07/21 02:30:03;;;;;;;1.60;1.50;;;;;;;18.78;67.71;100803.38;10267266;29;20054;-76
2022/07/21 02:35:06;;;;;;;1.25;1.15;;;;;;;18.85;67.59;100796.16;10268537;28;20055;-76
2022/07/21 02:40:09;;;;;;;3.42;1.50;;;;;;;19.02;66.71;100811.94;10256934;29;20066;-75
2022/07/21 02:45:13;;;;;;;1.35;1.15;;;;;;;19.12;66.68;100810.78;10263241;29;20058;-76
2022/07/21 02:50:16;;;;;;;2.05;1.58;;;;;;;19.29;66.18;100813.47;10243319;29;20059;-76
2022/07/21 02:55:18;;;;;;;2.25;1.88;;;;;;;19.44;65.45;100807.34;10234180;29;20065;-76
2022/07/21 03:00:21;;;;;;;2.33;1.88;;;;;;;19.60;66.00;100803.97;10253875;29;20043;-76
2022/07/21 03:05:23;;;;;;;2.15;1.60;;;;;;;19.80;65.84;100800.41;10246386;29;20050;-76
2022/07/21 03:10:25;;;;;;;2.33;1.92;;;;;;;19.92;64.71;100828.31;10267289;29;20050;-76
2022/07/21 03:15:27;;;;;;;1.67;1.58;;;;;;;20.03;64.63;100815.59;10248685;29;20105;-76
2022/07/21 03:20:33;;;;;;;3.72;1.92;;;;;;;20.08;65.24;100822.94;10242814;29;20035;-76
2022/07/21 03:25:35;;;;;;;2.33;1.83;;;;;;;20.31;64.64;100820.63;10259447;29;20542;-76
2022/07/21 03:30:38;;;;;;;2.50;1.98;;;;;;;20.54;64.01;100818.28;10225057;29;20055;-76
2022/07/21 03:35:41;;;;;;;2.03;1.73;;;;;;;20.63;63.38;100825.38;10235412;28;20534;-76
2022/07/21 03:40:44;;;;;;;3.08;1.95;;;;;;;20.89;62.84;100824.28;10258754;29;20039;-76
2022/07/21 03:45:46;;;;;;;2.50;2.00;;;;;;;21.09;62.42;100823.38;10284090;28;20043;-76
2022/07/21 03:50:48;;;;;;;2.78;2.47;;;;;;;21.40;61.64;100824.81;10268795;29;20062;-77
2022/07/21 03:55:51;;;;;;;3.22;2.33;;;;;;;21.72;60.98;100837.00;10262535;29;20051;-77
2022/07/21 04:00:53;;;;;;;3.55;2.40;;;;;;;21.92;59.89;100836.84;10271568;29;20441;-76
2022/07/21 04:05:55;;;;;;;1.98;1.80;;;;;;;22.20;59.92;100847.25;10265253;29;20062;-77
2022/07/21 04:10:58;;;;;;;3.22;1.67;;;;;;;22.52;58.58;100856.56;10258955;29;20055;-76
2022/07/21 04:16:00;;;;;;;1.10;1.00;;;;;;;22.45;58.80;100859.16;10284770;29;20039;-76
2022/07/21 04:21:03;;;;;;;2.25;1.50;;;;;;;22.45;58.71;100859.16;10282660;29;20043;-77
2022/07/21 04:26:06;;;;;;;2.42;1.95;;;;;;;22.51;58.23;100861.34;10254616;29;20617;-76
2022/07/21 04:31:08;;;;;;;2.60;1.92;;;;;;;22.66;58.37;100859.75;10263918;29;20062;-76
2022/07/21 04:36:10;;;;;;;3.42;2.15;;;;;;;22.94;58.45;100850.56;10252243;29;20040;-76
2022/07/21 04:41:12;;;;;;;2.53;1.73;;;;;;;23.16;58.25;100856.34;10267575;29;20047;-76
2022/07/21 04:46:15;;;;;;;3.83;2.75;;;;;;;23.19;57.87;100856.78;10256195;28;20036;-76
2022/07/21 04:52:07;;;;;;;4.30;2.05;;;;;;;23.12;57.92;100854.63;10268308;29;20086;-76
2022/07/21 04:57:09;;;;;;;3.25;2.20;;;;;;;23.17;57.22;100868.34;10270930;29;20043;-75
2022/07/21 05:02:12;;;;;;;1.67;1.58;;;;;;;23.21;57.41;100854.44;10262497;29;20051;-76
2022/07/21 05:07:14;;;;;;;4.65;3.03;;;;;;;23.42;56.83;100849.34;10261993;29;20108;-76
2022/07/21 05:12:16;;;;;;;4.40;2.85;;;;;;;23.42;57.31;100863.34;10247548;29;20040;-76
2022/07/21 05:17:19;;;;;;;2.55;2.17;;;;;;;23.59;56.50;100865.00;10280005;29;20052;-76
2022/07/21 05:22:21;;;;;;;6.10;3.75;;;;;;;23.74;55.81;100858.56;10246703;29;20040;-76
2022/07/21 05:27:23;;;;;;;6.00;4.00;;;;;;;23.87;56.27;100853.66;10267524;29;20178;-76
2022/07/21 05:32:26;;;;;;;4.97;3.45;;;;;;;24.06;55.31;100867.69;10285774;29;20047;-76
2022/07/21 05:37:28;;;;;;;6.53;3.17;;;;;;;24.59;54.55;100865.22;10286004;29;20051;-76
2022/07/21 05:42:30;;;;;;;9.30;3.05;;;;;;;25.17;52.86;100870.75;10271866;29;20054;-76
2022/07/21 05:47:33;;;;;;;4.63;3.38;;;;;;;25.40;53.14;100879.97;10285062;29;20039;-76
2022/07/21 05:52:35;;;;;;;2.63;2.20;;;;;;;25.67;52.54;100889.22;10283864;29;20066;-76
2022/07/21 05:57:39;;;;;;;8.35;3.40;;;;;;;25.88;51.38;100873.91;10265495;29;20035;-76
2022/07/21 06:02:41;;;;;;;4.93;3.55;;;;;;;26.17;51.24;100877.91;10284264;29;20050;-76
2022/07/21 06:07:44;;;;;;;7.50;4.30;;;;;;;26.26;50.96;100886.91;10280822;28;20036;-76
2022/07/21 06:12:46;;;;;;;4.45;3.08;;;;;;;26.69;49.54;100883.44;10267032;28;20050;-77
2022/07/21 06:17:48;;;;;;;5.07;2.67;;;;;;;27.26;48.74;100894.50;10283242;29;20074;-76
2022/07/21 06:22:51;;;;;;;4.93;3.08;;;;;;;27.75;47.78;100896.94;10265076;29;20051;-75
2022/07/21 06:27:53;;;;;;;4.88;3.00;;;;;;;28.13;46.55;100892.78;10283547;29;20039;-76
2022/07/21 06:32:56;;;;;;;5.80;3.90;;;;;;;28.08;46.17;100898.75;10282668;29;20074;-75
2022/07/21 06:37:58;;;;;;;4.43;3.22;;;;;;;27.82;46.97;100911.09;10282987;28;20043;-76
2022/07/21 06:43:01;;;;;;;6.82;3.85;;;;;;;27.44;47.40;100905.94;10281665;29;20034;-76
2022/07/21 06:48:09;;;;;;;4.93;3.22;;;;;;;27.94;46.93;100898.66;10266384;29;20179;-76
2022/07/21 06:53:11;;;;;;;6.07;3.78;;;;;;;28.26;46.06;100900.91;10265379;29;20189;-77
2022/07/21 06:58:16;;;;;;;5.32;3.33;;;;;;;28.39;46.22;100900.16;10280450;29;20525;-76
2022/07/21 07:03:19;;;;;;;6.20;3.45;;;;;;;28.77;45.02;100914.81;10265690;29;20040;-76
2022/07/21 07:08:22;;;;;;;6.43;4.18;;;;;;;29.30;44.08;100919.81;10264300;29;20039;-76
2022/07/21 07:13:26;;;;;;;7.25;3.95;;;;;;;29.40;43.21;100913.38;10282333;29;20043;-76
2022/07/21 07:18:29;;;;;;;6.57;3.97;;;;;;;29.37;43.19;100919.84;10250460;28;20051;-76
2022/07/21 07:23:31;;;;;;;6.80;3.47;;;;;;;29.15;43.64;100916.16;10260743;29;20514;-76
2022/07/21 07:28:34;;;;;;;8.10;3.47;;;;;;;29.21;43.60;100913.75;10242602;29;20431;-76
2022/07/21 07:33:36;;;;;;;11.90;4.38;;;;;;;29.50;44.11;100912.56;10242820;29;20040;-76
2022/07/21 07:38:39;;;;;;;5.82;3.00;;;;;;;30.03;42.99;100923.06;10242767;29;20051;-76
2022/07/21 07:43:43;;;;;;;5.50;3.78;;;;;;;30.00;42.38;100921.81;10242487;29;20052;-76
2022/07/21 07:48:47;;;;;;;5.60;3.67;;;;;;;30.41;41.75;100927.03;10281807;29;20046;-76
2022/07/21 07:53:51;;;;;;;5.82;3.70;;;;;;;30.48;41.44;100932.66;10282421;29;20047;-76
2022/07/21 07:58:53;;;;;;;5.63;3.60;;;;;;;30.31;41.48;100939.97;10251845;29;20042;-77
2022/07/21 08:03:56;;;;;;;6.18;3.33;;;;;;;30.26;41.75;100934.75;10209541;29;20047;-76
2022/07/21 08:08:58;;;;;;;4.70;3.25;;;;;;;30.21;41.59;100940.84;10242601;29;20036;-76
2022/07/21 08:14:01;;;;;;;5.63;3.38;;;;;;;30.22;41.31;100930.31;10225730;29;20058;-76
2022/07/21 08:19:03;;;;;;;5.53;3.58;;;;;;;30.36;41.53;100935.09;10242496;29;20043;-76
2022/07/21 08:24:08;;;;;;;7.65;4.05;;;;;;;30.50;41.01;100940.72;10259877;29;20043;-76
2022/07/21 08:29:10;;;;;;;7.07;3.38;;;;;;;30.44;41.14;100945.22;10264452;28;20506;-75
2022/07/21 08:34:12;;;;;;;4.47;3.10;;;;;;;30.51;41.95;100948.00;10288945;29;20497;-75
2022/07/21 08:39:15;;;;;;;6.07;3.45;;;;;;;30.55;41.27;100943.16;10272436;29;20048;-76
2022/07/21 08:44:22;;;;;;;5.40;3.55;;;;;;;30.14;41.47;100945.69;10269979;29;20054;-76
2022/07/21 08:49:25;;;;;;;5.57;3.28;;;;;;;30.16;41.56;100943.25;10271179;29;20051;-76
2022/07/21 08:54:27;;;;;;;4.10;2.90;;;;;;;30.06;41.67;100947.75;10288265;29;20043;-76
2022/07/21 08:59:30;;;;;;;3.85;2.55;;;;;;;30.05;40.60;100943.28;10276836;29;20047;-75
2022/07/21 09:04:34;;;;;;;6.40;3.75;;;;;;;29.84;41.54;100938.41;10261637;29;20039;-75
2022/07/21 09:09:36;;;;;;;5.43;3.72;;;;;;;30.04;41.33;100940.84;10267229;29;20529;-75
2022/07/21 09:14:39;;;;;;;6.95;3.25;;;;;;;30.13;40.60;100944.88;10236314;29;20031;-74
2022/07/21 09:19:45;;;;;;;4.10;3.20;;;;;;;30.07;40.66;100940.06;10274827;29;20062;-74
2022/07/21 09:24:49;;;;;;;3.60;3.03;;;;;;;30.25;39.50;100940.81;10258825;29;20064;-75
2022/07/21 09:29:53;;;;;;;6.15;3.30;;;;;;;29.73;39.49;100948.94;10285634;29;20417;-75
2022/07/21 09:35:00;;;;;;;4.22;3.10;;;;;;;29.24;40.64;100949.69;10272612;29;20035;-75
2022/07/21 09:40:09;;;;;;;5.43;3.80;;;;;;;28.66;41.07;100943.06;10245322;29;20035;-74
2022/07/21 09:45:16;;;;;;;6.20;3.50;;;;;;;28.11;41.31;100934.66;10274816;28;20050;-75
2022/07/21 09:50:19;;;;;;;;;;;;;;;27.77;42.62;100939.69;10269330;28;20054;-75
2022/07/21 09:55:21;;;;;;;5.30;3.05;;;;;;;27.55;42.69;100940.66;10264961;28;19929;-74
2022/07/21 10:00:23;;;;;;;7.70;4.88;;;;;;;27.37;42.58;100951.75;10268409;29;20588;-74
2022/07/21 10:05:26;;;;;;;5.88;3.70;;;;;;;27.18;43.38;100944.34;10266756;29;20091;-74
2022/07/21 10:10:28;;;;;;;9.88;4.20;;;;;;;26.95;44.52;100958.56;10250579;29;20046;-74
2022/07/21 10:15:30;;;;;;;5.50;3.78;;;;;;;26.93;45.26;100944.06;10284639;29;20461;-73
2022/07/21 10:20:36;;;;;;;8.02;5.70;;;;;;;26.89;45.14;100936.72;10280949;28;20035;-74
2022/07/21 10:25:39;;;;;;;8.32;5.00;;;;;;;26.88;45.99;100940.75;10265571;29;20051;-74
2022/07/21 10:30:43;;;;;;;7.05;4.40;;;;;;;26.85;45.44;100941.53;10264973;29;20143;-74
2022/07/21 10:35:50;;;;;;;7.35;3.78;;;;;;;26.92;44.94;100936.00;10265006;28;20046;-73
2022/07/21 10:40:53;;;;;;;6.22;3.55;;;;;;;26.98;45.10;100937.25;10280753;29;20035;-73
2022/07/21 10:45:59;;;;;;;8.05;5.28;;;;;;;27.13;45.16;100935.44;10260006;29;20054;-73
2022/07/21 10:51:07;;;;;;;7.53;4.97;;;;;;;27.14;46.29;100937.06;10278708;29;20054;-73
2022/07/21 10:56:31;;;;;;;8.63;4.63;;;;;;;27.22;45.72;100945.19;10265919;28;20051;-74
2022/07/21 11:01:35;;;;;;;8.00;4.65;;;;;;;27.15;44.99;100945.13;10263539;29;20039;-73
2022/07/21 11:06:40;;;;;;;7.15;4.13;;;;;;;27.03;44.19;100937.75;10281277;29;20047;-73
2022/07/21 11:12:03;;;;;;;6.68;4.10;;;;;;;27.03;44.63;100936.94;10269269;29;20048;-73
2022/07/21 11:17:09;;;;;;;6.18;4.60;;;;;;;27.06;43.77;100955.88;10261033;29;20055;-73
2022/07/21 11:22:14;;;;;;;8.57;5.68;;;;;;;27.04;42.91;100955.44;10278957;29;20103;-73
2022/07/21 11:27:21;;;;;;;6.82;4.60;;;;;;;26.97;43.24;100955.34;10282162;28;20054;-75
2022/07/21 11:32:24;;;;;;;7.78;4.22;;;;;;;26.89;42.65;100957.25;10265593;29;20050;-75
2022/07/21 11:37:30;;;;;;;11.27;6.25;;;;;;;26.81;42.54;100955.56;10279952;29;20051;-75
2022/07/21 11:42:33;;;;;;;8.73;5.13;;;;;;;26.77;42.90;100951.09;10282317;29;20576;-75
2022/07/21 11:47:40;;;;;;;9.25;5.07;;;;;;;26.79;42.84;100965.59;10281720;29;20056;-75
2022/07/21 11:52:44;;;;;;;8.15;4.97;;;;;;;26.73;43.35;100957.50;10278308;29;20059;-74
2022/07/21 11:57:47;;;;;;;8.18;4.97;;;;;;;26.82;43.38;100953.56;10235204;29;20040;-76
2022/07/21 12:02:50;;;;;;;8.20;5.40;;;;;;;26.91;42.95;100954.09;10253710;28;20043;-75
2022/07/21 12:07:53;;;;;;;9.55;6.00;;;;;;;26.96;43.44;100957.34;10287742;29;20532;-75
2022/07/21 12:12:58;;;;;;;11.40;6.03;;;;;;;26.89;42.19;100942.38;10287752;29;20047;-75
2022/07/21 12:18:06;;;;;;;8.60;5.50;;;;;;;26.94;41.94;100956.94;10289113;29;20047;-75
2022/07/21 12:23:22;;;;;;;9.05;6.10;;;;;;;26.99;42.03;100955.78;10244159;29;20046;-76
2022/07/21 12:28:47;;;;;;;8.85;6.07;;;;;;;26.99;41.92;100965.03;10281239;29;20035;-75
2022/07/21 12:33:51;;;;;;;8.52;5.35;;;;;;;26.91;42.41;100962.53;10259739;29;20525;-77
2022/07/21 12:38:55;;;;;;;12.07;7.60;;;;;;;26.90;42.37;100955.25;10281643;29;20525;-76
2022/07/21 12:43:58;;;;;;;7.13;4.72;;;;;;;26.88;42.67;100952.00;10258380;29;20130;-76
2022/07/21 12:49:09;;;;;;;10.68;6.82;;;;;;;26.88;43.22;100955.63;10259351;29;20274;-76
2022/07/21 12:54:12;;;;;;;7.55;5.07;;;;;;;26.86;42.24;100955.22;10246043;28;20054;-75
2022/07/21 12:59:14;;;;;;;8.95;5.05;;;;;;;26.85;42.81;100944.34;10273638;28;20402;-76
2022/07/21 13:04:17;;;;;;;8.60;5.22;;;;;;;26.80;41.83;100948.31;10272220;29;20051;-76
2022/07/21 13:09:19;;;;;;;11.15;6.97;;;;;;;26.79;42.22;100952.31;10289463;28;20059;-87
2022/07/21 13:14:21;;;;;;;5.75;3.55;;;;;;;26.76;41.55;100946.66;10270086;29;20046;-87
2022/07/21 13:19:24;;;;;;;11.15;6.50;;;;;;;26.78;42.08;100947.09;10261342;29;20046;-87
2022/07/21 13:24:27;;;;;;;11.00;6.43;;;;;;;26.76;42.37;100961.56;10230737;29;20055;-86
2022/07/21 13:29:31;;;;;;;9.93;5.68;;;;;;;26.75;42.27;100957.13;10230404;29;20043;-87
2022/07/21 13:34:34;;;;;;;7.65;4.88;;;;;;;26.76;43.47;100957.94;10247058;29;20047;-88
2022/07/21 13:39:38;;;;;;;12.10;6.82;;;;;;;26.76;43.32;100952.28;10230434;29;20039;-87
2022/07/21 13:44:40;;;;;;;8.45;5.30;;;;;;;26.80;43.87;100945.50;10242526;28;20516;-88
2022/07/21 13:49:51;;;;;;;10.13;6.90;;;;;;;26.85;44.12;100952.78;10309000;28;20051;-87
2022/07/21 13:54:54;;;;;;;11.27;6.60;;;;;;;26.83;43.35;100947.53;10290367;28;20406;-88
2022/07/21 13:59:57;;;;;;;8.93;5.63;;;;;;;26.74;42.13;100942.22;10269078;29;20558;-88
2022/07/21 14:05:01;;;;;;;8.80;5.28;;;;;;;26.70;41.68;100958.25;10285796;29;20108;-87
2022/07/21 14:10:07;;;;;;;10.73;6.35;;;;;;;26.71;41.37;100954.22;10285319;29;20050;-88
2022/07/21 14:15:10;;;;;;;10.93;6.28;;;;;;;26.69;41.70;100953.81;10268129;29;20039;-88
2022/07/21 14:20:13;;;;;;;8.55;5.65;;;;;;;26.64;40.95;100951.34;10285612;29;20051;-88
2022/07/21 14:25:18;;;;;;;7.47;5.80;;;;;;;26.68;42.11;100959.81;10252404;29;20036;-88
2022/07/21 14:30:20;;;;;;;9.32;6.13;;;;;;;26.64;42.95;100973.06;10266120;29;20047;-89
2022/07/21 14:35:24;;;;;;;11.23;6.57;;;;;;;26.60;43.23;100964.56;10278264;29;20046;-88
2022/07/21 14:40:27;;;;;;;12.05;6.78;;;;;;;26.53;43.41;100958.00;10284342;29;20707;-88
2022/07/21 14:45:31;;;;;;;7.60;4.78;;;;;;;26.49;43.01;100952.34;10267064;29;20054;-87
2022/07/21 14:50:33;;;;;;;6.55;4.00;;;;;;;26.51;43.33;100949.94;10250635;29;20051;-88
2022/07/21 14:55:36;;;;;;;9.68;5.57;;;;;;;26.46;43.14;100952.31;10283653;29;20541;-87
2022/07/21 15:00:38;;;;;;;12.98;6.85;;;;;;;26.46;43.32;100958.75;10283554;29;20066;-88
2022/07/21 15:05:40;;;;;;;9.18;5.53;;;;;;;26.40;42.66;100960.28;10266132;29;20575;-88
2022/07/21 15:10:43;;;;;;;10.15;5.35;;;;;;;26.35;43.54;100952.16;10283470;29;20043;-88
2022/07/21 15:15:45;;;;;;;8.32;5.30;;;;;;;26.35;42.87;100963.41;10282930;29;20050;-87
2022/07/21 15:20:48;;;;;;;8.63;5.85;;;;;;;26.33;42.69;100965.75;10282989;29;20047;-88
2022/07/21 15:25:50;;;;;;;7.30;4.70;;;;;;;26.32;43.28;100967.75;10265583;29;20127;-87
2022/07/21 15:30:52;;;;;;;8.50;5.50;;;;;;;26.30;42.82;100974.97;10265196;29;20082;-87
2022/07/21 15:35:54;;;;;;;6.93;4.45;;;;;;;26.32;42.88;100972.56;10282281;29;20039;-87
2022/07/21 15:40:57;;;;;;;8.20;4.53;;;;;;;26.31;43.49;100970.97;10291314;28;20043;-86
2022/07/21 15:45:59;;;;;;;9.95;5.47;;;;;;;26.32;42.77;100970.56;10278585;28;20043;-86
2022/07/21 15:51:02;;;;;;;7.05;3.85;;;;;;;26.32;42.62;100970.56;10278381;28;20051;-86
2022/07/21 15:56:06;;;;;;;6.00;4.05;;;;;;;26.26;42.75;100977.72;10278604;29;20054;-86
2022/07/21 16:01:09;;;;;;;6.72;3.95;;;;;;;26.21;42.82;100974.41;10278800;28;20421;-87
2022/07/21 16:06:11;;;;;;;8.23;5.47;;;;;;;26.15;43.35;100974.75;10262505;28;20521;-86
2022/07/21 16:11:13;;;;;;;6.80;4.93;;;;;;;26.18;43.80;100969.56;10295374;29;20047;-87
2022/07/21 16:16:15;;;;;;;7.07;4.45;;;;;;;26.17;43.10;100973.56;10262480;28;20047;-87
2022/07/21 16:21:18;;;;;;;7.57;5.20;;;;;;;26.17;43.42;100982.81;10295574;28;20046;-86
2022/07/21 16:26:20;;;;;;;6.05;3.72;;;;;;;26.14;43.02;100978.75;10295128;28;20043;-87
2022/07/21 16:31:22;;;;;;;6.28;4.35;;;;;;;26.12;43.50;100981.13;10295241;28;20048;-87
2022/07/21 16:36:24;;;;;;;9.27;5.57;;;;;;;26.12;43.29;100988.75;10294870;28;20049;-86
2022/07/21 16:41:27;;;;;;;8.20;5.47;;;;;;;26.09;43.62;100983.91;10277969;28;20410;-87
2022/07/21 16:46:29;;;;;;;9.73;5.53;;;;;;;26.04;43.97;100981.44;10308888;28;20043;-86
2022/07/21 16:51:31;;;;;;;9.30;5.68;;;;;;;26.01;44.08;100976.53;10329681;28;20055;-87
2022/07/21 16:56:33;;;;;;;11.10;5.07;;;;;;;26.00;44.38;100978.53;10328509;28;20050;-87
2022/07/21 17:01:37;;;;;;;7.65;5.10;;;;;;;25.96;43.82;100974.84;10310782;28;20069;-87
2022/07/21 17:06:40;;;;;;;7.25;4.40;;;;;;;25.92;44.16;100976.81;10294676;28;20069;-88
2022/07/21 17:11:42;;;;;;;7.07;4.90;;;;;;;25.90;44.29;100982.00;10310457;28;20074;-87
2022/07/21 17:16:45;;;;;;;8.90;5.88;;;;;;;25.87;45.15;100985.56;10310490;28;20050;-87
2022/07/21 17:21:48;;;;;;;7.43;4.93;;;;;;;25.88;44.49;100981.56;10310007;28;20054;-87
2022/07/21 17:26:50;;;;;;;8.70;4.55;;;;;;;25.84;44.06;100975.06;10326994;28;20394;-86
2022/07/21 17:31:53;;;;;;;8.02;3.88;;;;;;;25.79;44.79;100976.19;10310512;28;20055;-87
2022/07/21 17:36:55;;;;;;;6.18;4.78;;;;;;;25.74;44.59;100978.53;10286602;29;20043;-87
2022/07/21 17:41:57;;;;;;;8.88;4.68;;;;;;;25.72;44.53;100975.28;10286736;29;20043;-87
2022/07/21 17:47:00;;;;;;;7.95;5.00;;;;;;;25.69;44.34;100976.03;10286462;29;20049;-87
2022/07/21 17:52:03;;;;;;;8.10;5.15;;;;;;;25.66;44.30;100982.34;10269023;29;20055;-86
2022/07/21 18:02:26;;;;;;;9.82;5.57;;;;;;;25.42;48.95;100989.16;10285024;28;20059;-86
2022/07/21 18:07:29;;;;;;;11.05;5.90;;;;;;;25.22;50.51;100985.59;10285836;29;20051;-87
2022/07/21 18:12:32;;;;;;;9.18;5.13;;;;;;;24.94;55.68;100995.03;10284948;29;20062;-89
2022/07/21 18:17:35;;;;;;;9.95;5.75;;;;;;;24.54;59.28;100997.38;10285376;29;20049;-86
2022/07/21 18:22:38;;;;;;;6.82;3.80;;;;;;;24.17;60.16;100996.91;10285105;29;20039;-87
2022/07/21 18:27:40;;;;;;;7.03;3.80;;;;;;;23.81;61.42;100984.84;10267863;29;20046;-86
2022/07/21 18:32:43;;;;;;;5.47;3.80;;;;;;;23.57;62.82;100991.44;10267349;29;20078;-87
2022/07/21 18:37:47;;;;;;;6.55;3.75;;;;;;;23.42;63.45;100990.19;10267590;29;20046;-86
2022/07/21 18:42:50;;;;;;;5.88;4.32;;;;;;;23.19;64.92;101005.16;10284679;29;20051;-87
2022/07/21 18:47:54;;;;;;;7.75;4.30;;;;;;;22.98;66.28;101003.41;10284290;29;20039;-86
2022/07/21 18:52:56;;;;;;;6.00;3.90;;;;;;;22.75;67.32;101005.09;10266803;29;20066;-86
2022/07/21 18:58:00;;;;;;;7.38;3.65;;;;;;;22.62;67.19;101017.50;10283548;29;20039;-87
2022/07/21 19:03:02;;;;;;;4.32;3.45;;;;;;;22.41;68.34;101018.47;10266912;29;20426;-86
2022/07/21 19:08:05;;;;;;;3.35;3.00;;;;;;;22.24;68.60;101018.72;10283808;29;20066;-86
2022/07/21 19:13:07;;;;;;;7.90;4.57;;;;;;;22.11;70.19;101022.69;10282863;28;20434;-86
2022/07/21 19:18:10;;;;;;;8.25;5.13;;;;;;;21.98;70.38;101019.03;10283323;29;20399;-86
2022/07/21 19:23:12;;;;;;;6.20;4.07;;;;;;;21.80;70.70;101026.00;10266153;29;20046;-86
2022/07/21 19:28:15;;;;;;;4.80;2.92;;;;;;;21.71;71.12;101028.09;10281807;29;20047;-88
2022/07/21 19:33:20;;;;;;;5.18;2.72;;;;;;;21.59;70.24;101024.13;10263714;29;20055;-88
2022/07/21 19:38:22;;;;;;;3.35;2.78;;;;;;;21.49;71.40;101030.13;10264876;29;20042;-89
2022/07/21 19:43:24;;;;;;;4.25;2.80;;;;;;;21.41;71.95;101030.25;10282372;29;20425;-88
2022/07/21 19:48:28;;;;;;;2.75;2.17;;;;;;;21.33;71.39;101029.97;10265353;29;20054;-86
2022/07/21 19:53:33;;;;;;;4.43;2.55;;;;;;;21.20;71.98;101033.88;10265261;29;20059;-86
2022/07/21 19:58:36;;;;;;;4.05;2.70;;;;;;;21.32;71.30;101036.72;10265452;29;20053;-89
2022/07/21 20:03:38;;;;;;;5.25;3.00;;;;;;;21.20;72.35;101031.09;10282278;29;20525;-88
2022/07/21 20:08:40;;;;;;;2.63;2.28;;;;;;;21.08;72.86;101033.81;10282117;29;20394;-89
2022/07/21 20:13:43;;;;;;;3.67;2.80;;;;;;;21.01;72.62;101039.97;10282156;29;20047;-88
2022/07/21 20:18:46;;;;;;;5.05;2.50;;;;;;;20.94;72.74;101033.28;10249556;29;20390;-88
2022/07/21 20:23:49;;;;;;;4.05;2.15;;;;;;;20.96;72.58;101040.16;10264756;29;20149;-88
2022/07/21 20:28:52;;;;;;;2.45;2.08;;;;;;;21.04;72.06;101044.03;10286740;28;20052;-88
2022/07/21 20:33:54;;;;;;;2.65;2.03;;;;;;;20.99;72.53;101038.66;10289157;29;20062;-88
2022/07/21 20:38:56;;;;;;;2.25;2.05;;;;;;;21.02;72.15;101044.38;10289063;29;20039;-89
2022/07/21 20:43:59;;;;;;;2.85;2.20;;;;;;;20.96;72.02;101044.91;10288979;29;20126;-87
2022/07/21 20:49:02;;;;;;;4.43;2.72;;;;;;;20.95;71.49;101041.31;10322929;28;20042;-88
2022/07/21 20:54:04;;;;;;;3.15;2.70;;;;;;;20.90;71.59;101044.31;10311719;28;20055;-88
2022/07/21 20:59:07;;;;;;;3.88;1.88;;;;;;;20.80;71.91;101041.09;10328321;28;20047;-88
2022/07/21 21:04:12;;;;;;;2.92;2.20;;;;;;;20.69;71.28;101051.88;10311112;28;20524;-88
2022/07/21 21:09:14;;;;;;;2.97;1.88;;;;;;;20.65;72.62;101059.25;10328009;28;20039;-88
2022/07/21 21:14:16;;;;;;;3.08;2.45;;;;;;;20.62;72.50;101057.16;10327767;28;20047;-88
2022/07/21 21:19:19;;;;;;;2.72;2.30;;;;;;;20.62;72.30;101051.59;10327586;28;20424;-89
2022/07/21 21:24:21;;;;;;;3.58;2.22;;;;;;;20.60;72.21;101054.72;10327404;28;20046;-88
2022/07/21 21:29:25;;;;;;;2.83;1.85;;;;;;;20.54;72.14;101056.06;10327369;28;20050;-88
2022/07/21 21:34:27;;;;;;;6.43;2.55;;;;;;;20.52;72.06;101055.59;10312890;28;20507;-88
2022/07/21 21:39:29;;;;;;;2.13;1.92;;;;;;;20.51;71.95;101056.75;10286140;28;20042;-88
2022/07/21 21:44:32;;;;;;;3.38;2.10;;;;;;;20.48;71.99;101060.22;10286687;29;20418;-88
2022/07/21 21:49:35;;;;;;;3.15;2.55;;;;;;;20.48;72.03;101063.00;10287048;29;20051;-89
2022/07/21 21:54:37;;;;;;;2.75;2.03;;;;;;;20.48;72.32;101060.22;10285482;29;20055;-88
2022/07/21 21:59:40;;;;;;;3.22;1.92;;;;;;;20.47;72.18;101053.81;10286053;29;20133;-88
2022/07/21 22:04:42;;;;;;;4.38;2.17;;;;;;;20.57;71.99;101054.56;10285980;29;20422;-88
2022/07/21 22:09:44;;;;;;;2.80;2.15;;;;;;;20.61;71.70;101061.09;10285439;29;20055;-89
2022/07/21 22:14:47;;;;;;;3.13;2.53;;;;;;;20.58;72.31;101061.78;10285698;29;20047;-88
2022/07/21 22:19:49;;;;;;;3.78;2.10;;;;;;;20.64;71.44;101055.66;10285582;29;20058;-88
2022/07/21 22:24:52;;;;;;;3.63;2.20;;;;;;;20.63;71.54;101056.81;10284902;29;20098;-88
2022/07/21 22:29:54;;;;;;;3.00;2.03;;;;;;;20.64;71.63;101052.06;10284527;29;20130;-88
2022/07/21 22:34:56;;;;;;;2.42;1.98;;;;;;;20.76;71.23;101052.13;10283520;29;20043;-88
2022/07/21 22:39:59;;;;;;;6.97;2.72;;;;;;;20.76;71.45;101055.75;10251783;29;20067;-89
2022/07/21 22:45:01;;;;;;;4.55;2.85;;;;;;;20.64;72.54;101057.63;10268128;29;20051;-88
2022/07/21 22:50:04;;;;;;;3.65;2.60;;;;;;;20.50;73.14;101055.13;10293006;28;20069;-88
2022/07/21 22:55:06;;;;;;;3.85;2.83;;;;;;;20.52;72.71;101058.38;10324273;28;20059;-88
2022/07/21 23:00:09;;;;;;;6.22;3.03;;;;;;;20.48;72.61;101065.81;10324169;28;20039;-87
2022/07/21 23:05:12;;;;;;;6.63;2.90;;;;;;;20.48;72.52;101054.66;10302704;28;20042;-88
2022/07/21 23:10:14;;;;;;;3.55;2.45;;;;;;;20.45;72.58;101067.25;10323636;28;20098;-88
2022/07/21 23:15:17;;;;;;;4.25;2.72;;;;;;;20.31;72.53;101061.13;10323179;28;20045;-88
2022/07/21 23:20:19;;;;;;;2.92;2.50;;;;;;;20.25;73.00;101059.66;10323332;28;20528;-88
2022/07/21 23:25:21;;;;;;;3.92;2.53;;;;;;;20.35;72.80;101052.88;10323224;28;20039;-88